Time;durP1;ratioP1;P1;durP2;ratioP2;P2;SDS_P1;SDS_P2;PMS_P1;PMS_P2;Temp;Humidity;BMP_temperature;BMP_pressure;BME280_temperature;BME280_humidity;BME280_pressure;Samples;Min_cycle;Max_cycle;Signal;HPM_P1;HPM_P2
2023/07/29 00:01:49;;;;;;;4.63;1.58;;;;;;;-142.75;100.00;75413.00;5087891;28;20029;-64
2023/07/29 00:04:14;;;;;;;2.97;1.23;;;;;;;-142.75;100.00;75399.22;5088100;28;20020;-64
2023/07/29 00:06:40;;;;;;;4.68;1.67;;;;;;;-142.75;100.00;75401.19;5088274;28;20035;-64
2023/07/29 00:09:05;;;;;;;3.22;1.13;;;;;;;-142.75;100.00;75405.13;5088025;28;20147;-64
2023/07/29 00:11:33;;;;;;;2.92;1.23;;;;;;;-142.75;100.00;75405.13;5087859;28;20580;-64
2023/07/29 00:13:59;;;;;;;3.20;1.05;;;;;;;-142.75;100.00;75405.13;5089414;28;20055;-64
2023/07/29 00:16:24;;;;;;;4.82;1.52;;;;;;;-142.75;100.00;75407.09;5092173;28;20099;-64
2023/07/29 00:18:50;;;;;;;4.43;1.35;;;;;;;-142.75;100.00;75405.13;5091820;28;20111;-64
2023/07/29 00:21:15;;;;;;;2.17;1.02;;;;;;;-142.75;100.00;75401.19;5091728;28;20102;-64
2023/07/29 00:23:40;;;;;;;5.68;1.60;;;;;;;-142.75;100.00;75389.38;5078119;28;20115;-64
2023/07/29 00:26:06;;;;;;;6.30;1.50;;;;;;;-142.75;100.00;75399.22;5071767;28;20051;-64
2023/07/29 00:28:32;;;;;;;6.45;1.73;;;;;;;-142.75;100.00;75395.28;5071512;28;20469;-64
2023/07/29 00:30:57;;;;;;;4.10;1.17;;;;;;;-142.75;100.00;75401.19;5078062;28;20029;-63
2023/07/29 00:33:22;;;;;;;4.55;1.70;;;;;;;-142.75;100.00;75391.34;5071355;28;20020;-64
2023/07/29 00:35:48;;;;;;;8.43;1.67;;;;;;;-142.75;100.00;75385.44;5071407;28;20028;-64
2023/07/29 00:38:13;;;;;;;11.60;1.73;;;;;;;-142.75;100.00;75399.22;5071494;28;20062;-64
2023/07/29 00:40:39;;;;;;;5.00;1.40;;;;;;;-142.75;100.00;75385.44;5071086;28;20117;-63
2023/07/29 00:43:04;;;;;;;4.45;2.03;;;;;;;-142.75;100.00;75387.41;5071525;28;20020;-64
2023/07/29 00:45:32;;;;;;;6.65;1.60;;;;;;;-142.75;100.00;75367.72;5071749;28;20074;-64
2023/07/29 00:47:57;;;;;;;9.18;1.77;;;;;;;-142.75;100.00;75385.44;5071215;28;20103;-64
2023/07/29 00:50:23;;;;;;;6.18;1.98;;;;;;;-142.75;100.00;75389.38;5071336;28;20064;-64
2023/07/29 00:52:49;;;;;;;6.57;1.98;;;;;;;-142.75;100.00;75377.56;5070935;28;20122;-64
2023/07/29 00:55:14;;;;;;;5.78;2.20;;;;;;;-142.75;100.00;75373.63;5072092;28;20054;-64
2023/07/29 00:57:42;;;;;;;9.55;2.67;;;;;;;-142.75;100.00;75377.56;5073321;28;20085;-64
2023/07/29 01:00:08;;;;;;;8.23;2.53;;;;;;;-142.75;100.00;75375.59;5071372;28;20025;-64
2023/07/29 01:02:34;;;;;;;7.30;3.13;;;;;;;-142.75;100.00;75377.56;5070898;28;20023;-64
2023/07/29 01:05:00;;;;;;;6.85;2.20;;;;;;;-142.75;100.00;75367.72;5070902;28;20478;-64
2023/07/29 01:07:45;;;;;;;6.88;2.75;;;;;;;-142.75;100.00;75373.63;5069694;28;20024;-64
2023/07/29 01:10:16;;;;;;;6.32;2.45;;;;;;;-142.75;100.00;75377.56;5071051;28;20024;-65
2023/07/29 01:12:54;;;;;;;7.55;2.05;;;;;;;-142.75;100.00;75381.50;5070419;28;20075;-64
2023/07/29 01:15:32;;;;;;;8.32;2.00;;;;;;;-142.75;100.00;75393.31;5070943;28;20021;-64
2023/07/29 01:18:25;;;;;;;5.88;2.10;;;;;;;-142.75;100.00;75365.75;5070726;28;20035;-64
2023/07/29 01:20:55;;;;;;;5.35;2.28;;;;;;;-142.75;100.00;75413.00;5070522;28;20024;-65
2023/07/29 01:23:25;;;;;;;7.05;2.15;;;;;;;-142.75;100.00;75383.47;5070722;28;20021;-64
2023/07/29 01:25:50;;;;;;;7.05;2.20;;;;;;;-142.75;100.00;75401.19;5069336;28;20400;-64
2023/07/29 01:28:15;;;;;;;7.47;2.03;;;;;;;-142.75;100.00;75405.13;5070419;28;20020;-64
2023/07/29 01:30:44;;;;;;;5.10;2.08;;;;;;;-142.75;100.00;75405.13;5070072;28;20028;-64
2023/07/29 01:33:16;;;;;;;5.60;2.33;;;;;;;-142.75;100.00;75409.06;5070513;28;20031;-64
2023/07/29 01:35:57;;;;;;;4.38;1.67;;;;;;;-142.75;100.00;75413.00;5070692;28;20103;-64
2023/07/29 01:38:31;;;;;;;6.45;2.03;;;;;;;-142.75;100.00;75420.88;5070517;28;20053;-64
2023/07/29 01:41:01;;;;;;;5.13;1.30;;;;;;;-142.75;100.00;75432.69;5070061;28;20471;-64
2023/07/29 01:43:27;;;;;;;4.63;1.65;;;;;;;-142.75;100.00;75452.34;5070277;28;20036;-64
2023/07/29 01:45:53;;;;;;;4.45;1.45;;;;;;;-142.75;100.00;75466.13;5070425;28;20103;-64
2023/07/29 01:48:18;;;;;;;5.00;1.38;;;;;;;-142.75;100.00;75454.31;5070044;28;20437;-64
2023/07/29 01:50:44;;;;;;;4.60;1.35;;;;;;;-142.75;100.00;75466.13;5068722;28;20021;-64
2023/07/29 01:53:09;;;;;;;4.18;1.23;;;;;;;-142.75;100.00;75468.09;5069965;28;20055;-64
2023/07/29 01:55:34;;;;;;;3.13;1.63;;;;;;;-142.75;100.00;75474.00;5069954;28;20027;-64
2023/07/29 01:58:00;;;;;;;4.60;1.60;;;;;;;-142.75;100.00;75503.53;5070135;28;20020;-64
2023/07/29 02:00:25;;;;;;;7.22;1.88;;;;;;;-142.75;100.00;75487.78;5069728;28;20024;-64
2023/07/29 02:02:51;;;;;;;3.13;1.30;;;;;;;-142.75;100.00;75491.72;5069724;28;20021;-64
2023/07/29 02:05:16;;;;;;;2.83;1.42;;;;;;;-142.75;100.00;75503.53;5069416;28;20090;-64
2023/07/29 02:07:41;;;;;;;4.65;1.52;;;;;;;-142.75;100.00;75509.44;5069650;28;20020;-64
2023/07/29 02:10:07;;;;;;;7.93;1.35;;;;;;;-142.75;100.00;75497.63;5069859;28;20032;-64
2023/07/29 02:12:33;;;;;;;5.38;1.30;;;;;;;-142.75;100.00;75509.44;5068118;28;20032;-64
2023/07/29 02:14:58;;;;;;;2.58;1.25;;;;;;;-142.75;100.00;75531.06;5069583;28;20369;-65
2023/07/29 02:17:23;;;;;;;5.95;1.67;;;;;;;-142.75;100.00;75505.50;5069484;28;20024;-64
2023/07/29 02:19:49;;;;;;;4.70;1.83;;;;;;;-142.75;100.00;75521.22;5069257;28;20020;-64
2023/07/29 02:22:17;;;;;;;1.80;0.88;;;;;;;-142.75;100.00;75507.47;5068987;28;20024;-64
2023/07/29 02:24:43;;;;;;;4.28;1.48;;;;;;;-142.75;100.00;75503.53;5069322;28;20619;-64
2023/07/29 02:27:08;;;;;;;2.13;0.93;;;;;;;-142.75;100.00;75503.53;5069201;28;20021;-64
2023/07/29 02:29:34;;;;;;;3.85;1.10;;;;;;;-142.75;100.00;75495.66;5069181;28;20445;-64
2023/07/29 02:32:00;;;;;;;2.58;1.10;;;;;;;-142.75;100.00;75493.69;5068768;28;20021;-65
2023/07/29 02:34:25;;;;;;;6.88;1.10;;;;;;;-142.75;100.00;75503.53;5069224;28;20031;-64
2023/07/29 02:36:50;;;;;;;2.75;1.15;;;;;;;-142.75;100.00;75487.78;5068471;28;20480;-64
2023/07/29 02:39:16;;;;;;;4.03;1.30;;;;;;;-142.75;100.00;75493.69;5069069;28;20510;-64
2023/07/29 02:41:41;;;;;;;3.05;1.15;;;;;;;-142.75;100.00;75483.84;5068616;28;20028;-64
2023/07/29 02:44:07;;;;;;;3.25;1.00;;;;;;;-142.75;100.00;75489.75;5069100;28;20108;-65
2023/07/29 02:46:32;;;;;;;3.20;1.15;;;;;;;-142.75;100.00;75475.97;5069159;28;20036;-64
2023/07/29 02:48:57;;;;;;;1.67;0.98;;;;;;;-142.75;100.00;75491.72;5068918;28;20107;-64
2023/07/29 02:51:23;;;;;;;3.35;1.05;;;;;;;-142.75;100.00;75485.81;5068416;28;20128;-64
2023/07/29 02:53:48;;;;;;;3.15;1.17;;;;;;;-142.75;100.00;75495.66;5068795;28;20086;-64
2023/07/29 02:56:13;;;;;;;4.32;1.30;;;;;;;-142.75;100.00;75499.59;5068853;28;20078;-64
2023/07/29 02:58:39;;;;;;;2.35;1.17;;;;;;;-142.75;100.00;75507.47;5068645;28;20024;-65
2023/07/29 03:01:06;;;;;;;6.75;1.50;;;;;;;-142.75;100.00;75517.28;5068485;28;20074;-64
2023/07/29 03:03:32;;;;;;;4.40;1.58;;;;;;;-142.75;100.00;75533.03;5068544;28;20400;-65
2023/07/29 03:06:00;;;;;;;1.88;0.93;;;;;;;-142.75;100.00;75505.50;5068579;28;20093;-64
2023/07/29 03:08:25;;;;;;;3.00;1.45;;;;;;;-142.75;100.00;75513.38;5068534;28;20441;-64
2023/07/29 03:10:51;;;;;;;3.22;1.30;;;;;;;-142.75;100.00;75527.13;5068170;28;20119;-64
2023/07/29 03:13:16;;;;;;;4.70;1.38;;;;;;;-142.75;100.00;75519.25;5074243;28;20055;-64
2023/07/29 03:15:41;;;;;;;4.40;1.83;;;;;;;-142.75;100.00;75511.41;5088544;28;20028;-64
2023/07/29 03:18:07;;;;;;;5.10;1.63;;;;;;;-142.75;100.00;75533.03;5088406;28;20050;-64
2023/07/29 03:20:32;;;;;;;4.50;1.50;;;;;;;-142.75;100.00;75525.16;5088267;28;20502;-64
2023/07/29 03:22:57;;;;;;;3.05;1.50;;;;;;;-142.75;100.00;75517.28;5088790;28;20024;-64
2023/07/29 03:25:23;;;;;;;2.92;1.10;;;;;;;-142.75;100.00;75509.44;5088423;28;20055;-64
2023/07/29 03:27:49;;;;;;;2.63;1.33;;;;;;;-142.75;100.00;75515.31;5088707;28;20150;-64
2023/07/29 03:30:14;;;;;;;2.72;1.35;;;;;;;-142.75;100.00;75531.06;5088357;28;20027;-64
2023/07/29 03:32:44;;;;;;;3.05;1.33;;;;;;;-142.75;100.00;75519.25;5088854;28;20024;-64
2023/07/29 03:35:09;;;;;;;6.28;1.75;;;;;;;-142.75;100.00;75536.97;5088287;28;20032;-64
2023/07/29 03:37:35;;;;;;;5.90;1.50;;;;;;;-142.75;100.00;75546.81;5088252;28;20024;-64
2023/07/29 03:40:00;;;;;;;2.47;1.20;;;;;;;-142.75;100.00;75533.03;5088316;28;20115;-64
2023/07/29 03:42:25;;;;;;;4.93;1.55;;;;;;;-142.75;100.00;75525.16;5088016;28;20042;-64
2023/07/29 03:44:50;;;;;;;2.72;1.50;;;;;;;-142.75;100.00;75529.09;5088278;28;20024;-64
2023/07/29 03:47:16;;;;;;;3.10;1.60;;;;;;;-142.75;100.00;75535.00;5088353;28;20020;-64
2023/07/29 03:49:41;;;;;;;3.33;1.63;;;;;;;-142.75;100.00;75527.13;5089375;28;20036;-64
2023/07/29 03:52:07;;;;;;;5.10;1.70;;;;;;;-142.75;100.00;75542.88;5078740;28;20120;-64
2023/07/29 03:54:32;;;;;;;3.78;2.00;;;;;;;-142.75;100.00;75517.28;5072254;28;20035;-64
2023/07/29 03:56:57;;;;;;;4.28;1.52;;;;;;;-142.75;100.00;75519.25;5072138;28;20033;-64
2023/07/29 03:59:23;;;;;;;3.05;1.80;;;;;;;-142.75;100.00;75523.19;5072459;28;20017;-64
2023/07/29 04:01:48;;;;;;;2.97;1.70;;;;;;;-142.75;100.00;75525.16;5071685;28;20021;-64
2023/07/29 04:04:13;;;;;;;4.88;1.55;;;;;;;-142.75;100.00;75523.19;5071889;28;20495;-64
2023/07/29 04:06:39;;;;;;;4.32;1.95;;;;;;;-142.75;100.00;75535.00;5071971;28;20020;-64
2023/07/29 04:09:04;;;;;;;3.88;1.80;;;;;;;-142.75;100.00;75503.53;5071895;28;20055;-64
2023/07/29 04:11:29;;;;;;;4.85;2.13;;;;;;;-142.75;100.00;75507.47;5071481;28;20115;-63
2023/07/29 04:13:55;;;;;;;5.35;1.75;;;;;;;-142.75;100.00;75505.50;5071695;28;20025;-64
2023/07/29 04:16:20;;;;;;;4.60;1.83;;;;;;;-142.75;100.00;75507.47;5078904;28;20024;-64
2023/07/29 04:18:45;;;;;;;4.07;1.60;;;;;;;-142.75;100.00;75517.28;5071441;28;20024;-64
2023/07/29 04:21:11;;;;;;;5.50;1.70;;;;;;;-142.75;100.00;75507.47;5071276;28;20465;-64
2023/07/29 04:23:36;;;;;;;4.43;1.77;;;;;;;-142.75;100.00;75513.38;5071546;28;20036;-64
2023/07/29 04:26:01;;;;;;;7.45;2.30;;;;;;;-142.75;100.00;75525.16;5071669;28;20040;-64
2023/07/29 04:28:27;;;;;;;5.25;2.00;;;;;;;-142.75;100.00;75519.25;5071489;28;20485;-64
2023/07/29 04:30:52;;;;;;;3.50;1.80;;;;;;;-142.75;100.00;75511.41;5071111;28;20086;-64
2023/07/29 04:33:17;;;;;;;4.22;2.10;;;;;;;-142.75;100.00;75527.13;5091206;28;20543;-63
2023/07/29 04:35:43;;;;;;;4.30;1.98;;;;;;;-142.75;100.00;75507.47;5091509;28;20053;-64
2023/07/29 04:38:08;;;;;;;3.38;1.60;;;;;;;-142.75;100.00;75497.63;5091650;28;20024;-64
2023/07/29 04:40:33;;;;;;;6.13;2.25;;;;;;;-142.75;100.00;75495.66;5091046;28;20024;-63
2023/07/29 04:43:01;;;;;;;4.20;2.08;;;;;;;-142.75;100.00;75487.78;5090028;28;20027;-64
2023/07/29 04:45:29;;;;;;;5.10;2.20;;;;;;;-142.75;100.00;75491.72;5090123;28;20622;-64
2023/07/29 04:47:55;;;;;;;5.95;2.38;;;;;;;-142.75;100.00;75503.53;5090374;28;20027;-64
2023/07/29 04:50:21;;;;;;;7.65;2.53;;;;;;;-142.75;100.00;75499.59;5089828;28;20024;-64
2023/07/29 04:52:46;;;;;;;5.25;2.50;;;;;;;-142.75;100.00;75497.63;5089769;28;20074;-64
2023/07/29 04:55:11;;;;;;;5.93;2.75;;;;;;;-142.75;100.00;75489.75;5090048;28;20048;-64
2023/07/29 04:57:36;;;;;;;4.05;2.42;;;;;;;-142.75;100.00;75497.63;5090091;28;20047;-64
2023/07/29 05:00:03;;;;;;;8.55;3.20;;;;;;;-142.75;100.00;75515.31;5089565;28;20376;-64
2023/07/29 05:02:28;;;;;;;7.07;2.75;;;;;;;-142.75;100.00;75505.50;5089005;28;20491;-64
2023/07/29 05:04:54;;;;;;;10.25;3.80;;;;;;;-142.75;100.00;75501.56;5089944;28;20034;-64
2023/07/29 05:07:19;;;;;;;5.78;2.90;;;;;;;-142.75;100.00;75497.63;5090236;28;20027;-63
2023/07/29 05:09:44;;;;;;;5.32;2.92;;;;;;;-142.75;100.00;75507.47;5089837;28;20071;-64
2023/07/29 05:12:10;;;;;;;6.25;3.08;;;;;;;-142.75;100.00;75495.66;5089540;28;20484;-64
2023/07/29 05:14:35;;;;;;;6.72;3.05;;;;;;;-142.75;100.00;75475.97;5089871;28;20392;-63
2023/07/29 05:17:00;;;;;;;7.43;2.58;;;;;;;-142.75;100.00;75472.03;5089576;28;20047;-64
2023/07/29 05:19:26;;;;;;;7.05;3.13;;;;;;;-142.75;100.00;75483.84;5089695;28;20024;-64
2023/07/29 05:21:52;;;;;;;9.60;3.17;;;;;;;-142.75;100.00;75470.06;5089196;28;20098;-64
2023/07/29 05:24:17;;;;;;;5.55;2.92;;;;;;;-142.75;100.00;75466.13;5088355;28;20027;-64
2023/07/29 05:26:42;;;;;;;6.60;2.80;;;;;;;-142.75;100.00;75448.41;5089626;28;20085;-63
2023/07/29 05:29:07;;;;;;;6.22;3.50;;;;;;;-142.75;100.00;75442.50;5089491;28;20028;-64
2023/07/29 05:31:33;;;;;;;5.63;2.40;;;;;;;-142.75;100.00;75428.75;5089136;28;20034;-64
2023/07/29 05:33:59;;;;;;;7.60;3.33;;;;;;;-142.75;100.00;75428.75;5089259;28;20052;-62
2023/07/29 05:36:24;;;;;;;6.68;3.22;;;;;;;-142.75;100.00;75428.75;5088293;28;20471;-63
2023/07/29 05:38:50;;;;;;;6.72;3.03;;;;;;;-142.75;100.00;75405.13;5084045;28;20020;-64
2023/07/29 05:41:15;;;;;;;6.93;3.10;;;;;;;-142.75;100.00;75424.81;5039030;28;1112759;-64
2023/07/29 05:43:43;;;;;;;10.20;3.10;;;;;;;-142.75;100.00;75399.22;5074148;28;20021;-64
2023/07/29 05:46:08;;;;;;;5.80;3.20;;;;;;;-142.75;100.00;75420.88;5070206;28;20056;-64
2023/07/29 05:48:34;;;;;;;10.65;3.65;;;;;;;-142.75;100.00;75407.09;5069813;28;20058;-64
2023/07/29 05:50:59;;;;;;;9.43;3.65;;;;;;;-142.75;100.00;75444.47;5077617;28;20024;-63
2023/07/29 05:53:24;;;;;;;6.38;3.45;;;;;;;-142.75;100.00;75428.75;5090072;28;20020;-64
2023/07/29 05:55:50;;;;;;;7.53;3.20;;;;;;;-142.75;100.00;75448.41;5090122;28;20478;-64
2023/07/29 05:58:15;;;;;;;5.63;2.80;;;;;;;-142.75;100.00;75452.34;5090360;28;20044;-64
2023/07/29 06:00:41;;;;;;;5.43;3.05;;;;;;;-142.75;100.00;75424.81;5088268;28;20020;-64
2023/07/29 06:03:06;;;;;;;7.00;2.90;;;;;;;-142.75;100.00;75424.81;5089771;28;20069;-64
2023/07/29 06:05:31;;;;;;;8.20;2.75;;;;;;;-142.75;100.00;75416.94;5089595;28;20009;-64
2023/07/29 06:07:57;;;;;;;7.28;2.80;;;;;;;-142.75;100.00;75409.06;5089944;28;20024;-64
2023/07/29 06:10:22;;;;;;;8.73;2.88;;;;;;;-142.75;100.00;75405.13;5089711;28;20112;-64
2023/07/29 06:12:47;;;;;;;5.85;2.80;;;;;;;-142.75;100.00;75409.06;5088699;28;20387;-64
2023/07/29 06:15:13;;;;;;;5.88;2.78;;;;;;;-142.75;100.00;75405.13;5089756;28;20034;-64
2023/07/29 06:17:39;;;;;;;5.93;3.17;;;;;;;-142.75;100.00;75389.38;5089590;28;20096;-64
2023/07/29 06:20:05;;;;;;;8.57;2.97;;;;;;;-142.75;100.00;75397.25;5089765;28;20108;-64
2023/07/29 06:22:31;;;;;;;8.15;2.65;;;;;;;-142.75;100.00;75385.44;5089328;28;20077;-65
2023/07/29 06:24:56;;;;;;;8.27;2.63;;;;;;;-142.75;100.00;75365.75;5089622;28;20028;-64
2023/07/29 06:27:22;;;;;;;9.43;3.35;;;;;;;-142.75;100.00;75381.50;5080584;28;20099;-65
2023/07/29 06:29:47;;;;;;;8.50;2.75;;;;;;;-142.75;100.00;75381.50;5069185;28;20040;-64
2023/07/29 06:32:12;;;;;;;4.30;2.65;;;;;;;-142.75;100.00;75371.66;5068657;28;20056;-64
2023/07/29 06:34:38;;;;;;;5.60;2.90;;;;;;;-142.75;100.00;75365.75;5069197;28;20032;-65
2023/07/29 06:37:03;;;;;;;3.38;1.77;;;;;;;-142.75;100.00;75350.03;5069025;28;20054;-65
2023/07/29 06:39:28;;;;;;;5.22;2.30;;;;;;;-142.75;100.00;75342.16;5068954;28;20093;-63
2023/07/29 06:41:54;;;;;;;6.43;2.42;;;;;;;-142.75;100.00;75332.31;5068770;28;20021;-64
2023/07/29 06:44:19;;;;;;;8.13;2.53;;;;;;;-142.75;100.00;75310.66;5068920;28;20020;-65
2023/07/29 06:46:44;;;;;;;7.70;2.85;;;;;;;-142.75;100.00;75291.00;5068937;28;20074;-64
2023/07/29 06:49:10;;;;;;;7.03;2.60;;;;;;;-142.75;100.00;75263.44;5087354;28;20024;-64
2023/07/29 06:51:35;;;;;;;8.98;2.63;;;;;;;-142.75;100.00;75271.31;5076634;28;20392;-65
2023/07/29 06:54:01;;;;;;;6.72;2.75;;;;;;;-142.75;100.00;75239.81;5068833;28;20097;-64
2023/07/29 06:56:27;;;;;;;7.20;2.40;;;;;;;-142.75;100.00;75239.81;5069648;28;20522;-64
2023/07/29 06:58:52;;;;;;;6.93;2.38;;;;;;;-142.75;100.00;75200.47;5068705;28;20111;-65
2023/07/29 07:01:18;;;;;;;6.63;2.30;;;;;;;-142.75;100.00;75206.38;5068299;28;20024;-65
2023/07/29 07:03:43;;;;;;;4.90;2.58;;;;;;;-142.75;100.00;75188.66;5068606;28;20035;-65
2023/07/29 07:06:09;;;;;;;8.48;2.78;;;;;;;-142.75;100.00;75190.63;5069894;28;20106;-64
2023/07/29 07:08:34;;;;;;;7.20;1.98;;;;;;;-142.75;100.00;75212.28;5067082;28;20115;-65
2023/07/29 07:10:59;;;;;;;7.07;1.90;;;;;;;-142.75;100.00;75216.22;5068052;28;20036;-65
2023/07/29 07:13:25;;;;;;;5.93;1.90;;;;;;;-142.75;100.00;75228.00;5068707;28;20032;-64
2023/07/29 07:15:50;;;;;;;4.32;2.10;;;;;;;-142.75;100.00;75204.41;5068369;28;20021;-64
2023/07/29 07:18:15;;;;;;;4.07;1.88;;;;;;;-142.75;100.00;75204.41;5068519;28;20020;-65
2023/07/29 07:20:41;;;;;;;7.95;2.08;;;;;;;-142.75;100.00;75192.59;5067388;28;20060;-64
2023/07/29 07:23:10;;;;;;;7.32;2.42;;;;;;;-142.75;100.00;75229.97;5080345;28;20468;-64
2023/07/29 07:25:36;;;;;;;2.45;1.58;;;;;;;-142.75;100.00;75267.38;5086614;28;20077;-65
2023/07/29 07:28:01;;;;;;;4.78;1.80;;;;;;;-142.75;100.00;75271.31;5087881;28;20020;-64
2023/07/29 07:30:26;;;;;;;5.70;2.03;;;;;;;-142.75;100.00;75251.63;5087883;28;20507;-65
2023/07/29 07:32:52;;;;;;;5.85;1.95;;;;;;;-142.75;100.00;75261.47;5087732;28;20055;-64
2023/07/29 07:35:18;;;;;;;5.55;2.10;;;;;;;-142.75;100.00;75275.25;5087688;28;20145;-64
2023/07/29 07:37:44;;;;;;;3.15;1.77;;;;;;;-142.75;100.00;75281.16;5086564;28;20028;-64
2023/07/29 07:40:09;;;;;;;6.47;1.98;;;;;;;-142.75;100.00;75271.31;5072235;28;20036;-65
2023/07/29 07:42:35;;;;;;;3.45;1.52;;;;;;;-142.75;100.00;75271.31;5067058;28;20031;-64
2023/07/29 07:45:00;;;;;;;5.40;1.92;;;;;;;-142.75;100.00;75237.84;5067237;28;20040;-63
2023/07/29 07:47:25;;;;;;;5.35;2.20;;;;;;;-142.75;100.00;75257.53;5083700;28;20028;-63
2023/07/29 07:49:51;;;;;;;3.92;2.17;;;;;;;-142.75;100.00;75224.09;5087644;28;20024;-63
2023/07/29 07:52:16;;;;;;;4.55;1.95;;;;;;;-142.75;100.00;75216.22;5087623;28;20028;-64
2023/07/29 07:54:41;;;;;;;7.60;2.40;;;;;;;-142.75;100.00;75251.63;5087331;28;20169;-64
2023/07/29 07:57:07;;;;;;;3.97;2.15;;;;;;;-142.75;100.00;75228.00;5082342;28;20086;-63
2023/07/29 07:59:32;;;;;;;4.45;2.80;;;;;;;-142.75;100.00;75249.66;5073633;28;20513;-63
2023/07/29 08:01:57;;;;;;;6.68;2.58;;;;;;;-142.75;100.00;75294.94;5079177;28;20718;-63
2023/07/29 08:04:23;;;;;;;4.40;2.10;;;;;;;-142.75;100.00;75279.19;5076133;28;20115;-64
2023/07/29 08:06:48;;;;;;;5.63;2.25;;;;;;;-142.75;100.00;75283.13;5081495;28;20028;-64
2023/07/29 08:09:14;;;;;;;4.38;2.17;;;;;;;-142.75;100.00;75279.19;5080993;28;20026;-64
2023/07/29 08:11:40;;;;;;;4.10;2.28;;;;;;;-142.75;100.00;75249.66;5079548;28;20395;-64
2023/07/29 08:14:05;;;;;;;3.67;2.17;;;;;;;-142.75;100.00;75259.50;5074996;28;20026;-64
2023/07/29 08:16:30;;;;;;;4.43;2.45;;;;;;;-142.75;100.00;75285.09;5068467;28;20039;-64
2023/07/29 08:18:56;;;;;;;7.07;2.28;;;;;;;-142.75;100.00;75287.06;5066759;28;20104;-63
2023/07/29 08:21:21;;;;;;;7.38;2.88;;;;;;;-142.75;100.00;75322.47;5072143;28;20016;-63
2023/07/29 08:23:46;;;;;;;4.93;2.42;;;;;;;-142.75;100.00;75308.69;5073301;28;20055;-64
2023/07/29 08:26:12;;;;;;;5.88;2.50;;;;;;;-142.75;100.00;75285.09;5077032;28;20060;-63
2023/07/29 08:28:39;;;;;;;5.85;2.40;;;;;;;-142.75;100.00;75292.97;5072874;28;20024;-63
2023/07/29 08:31:05;;;;;;;5.75;2.45;;;;;;;-142.75;100.00;75296.88;5070639;28;20029;-63
2023/07/29 08:33:31;;;;;;;3.65;2.40;;;;;;;-142.75;100.00;75277.22;5070066;28;20025;-64
2023/07/29 08:35:57;;;;;;;7.25;2.33;;;;;;;-142.75;100.00;75267.38;5076841;28;20028;-63
2023/07/29 08:38:22;;;;;;;5.72;2.35;;;;;;;-142.75;100.00;75259.50;5077839;28;20024;-63
2023/07/29 08:41:18;;;;;;;4.88;2.40;;;;;;;-142.75;100.00;75228.00;5071199;28;20028;-63
2023/07/29 08:43:52;;;;;;;4.47;2.33;;;;;;;-142.75;100.00;75200.47;5074433;28;20083;-64
2023/07/29 08:46:19;;;;;;;4.07;2.20;;;;;;;-142.75;100.00;75153.25;5077380;28;20285;-63
2023/07/29 08:48:46;;;;;;;6.50;1.92;;;;;;;-142.75;100.00;75145.38;5079839;28;20028;-64
2023/07/29 08:51:12;;;;;;;5.93;2.00;;;;;;;-142.75;100.00;75188.66;5071480;28;20042;-63
2023/07/29 08:53:38;;;;;;;5.13;2.20;;;;;;;-142.75;100.00;75157.19;5077411;28;20031;-64
2023/07/29 08:56:05;;;;;;;3.58;1.90;;;;;;;-142.75;100.00;75145.38;5079708;28;20525;-64
2023/07/29 08:58:31;;;;;;;4.45;1.85;;;;;;;-142.75;100.00;75157.19;5076395;28;20050;-64
2023/07/29 09:00:56;;;;;;;2.92;1.75;;;;;;;-142.75;100.00;75161.13;5071297;28;20031;-65
2023/07/29 09:03:22;;;;;;;2.03;1.60;;;;;;;-142.75;100.00;75143.41;5075165;28;20020;-64
2023/07/29 09:05:47;;;;;;;4.55;1.90;;;;;;;-142.75;100.00;75135.53;5076349;28;20415;-65
2023/07/29 09:08:13;;;;;;;6.75;2.00;;;;;;;-142.75;100.00;75139.47;5077455;28;20107;-64
2023/07/29 09:10:39;;;;;;;2.13;1.40;;;;;;;-142.75;100.00;75161.13;5076007;28;20029;-65
2023/07/29 09:13:05;;;;;;;4.13;1.77;;;;;;;-142.75;100.00;75184.72;5071913;28;20042;-65
2023/07/29 09:15:33;;;;;;;4.38;2.33;;;;;;;-142.75;100.00;75218.19;5073196;28;20058;-65
2023/07/29 09:17:59;;;;;;;4.35;1.83;;;;;;;-142.75;100.00;75212.28;5070627;28;20025;-64
2023/07/29 09:20:28;;;;;;;4.28;2.33;;;;;;;-142.75;100.00;75220.16;5070397;28;20028;-64
2023/07/29 09:22:55;;;;;;;3.05;2.10;;;;;;;-142.75;100.00;75226.06;5069615;28;20029;-64
2023/07/29 09:25:28;;;;;;;4.38;2.10;;;;;;;-142.75;100.00;75204.41;5069704;28;20034;-63
2023/07/29 09:27:59;;;;;;;9.00;2.63;;;;;;;-142.75;100.00;75218.19;5079283;28;20066;-64
2023/07/29 09:30:25;;;;;;;3.55;2.13;;;;;;;-142.75;100.00;75222.13;5070821;28;20069;-64
2023/07/29 09:32:57;;;;;;;4.70;2.33;;;;;;;-142.75;100.00;75192.59;5068330;28;20028;-64
2023/07/29 09:35:24;;;;;;;4.20;2.47;;;;;;;-142.75;100.00;75224.09;5069794;28;20031;-64
2023/07/29 09:37:51;;;;;;;5.30;2.35;;;;;;;-142.75;100.00;75253.59;5068546;28;20540;-63
2023/07/29 09:40:18;;;;;;;4.30;2.00;;;;;;;-142.75;100.00;75253.59;5069745;28;20422;-63
2023/07/29 09:42:55;;;;;;;3.35;1.80;;;;;;;-142.75;100.00;75214.25;5069190;28;20027;-64
2023/07/29 09:45:25;;;;;;;3.20;1.63;;;;;;;-142.75;100.00;75229.97;5067241;28;20044;-64
2023/07/29 09:47:54;;;;;;;5.25;1.70;;;;;;;-142.75;100.00;75208.34;5066689;28;20506;-64
2023/07/29 09:50:24;;;;;;;4.47;2.00;;;;;;;-142.75;100.00;75231.94;5055135;28;20040;-63
2023/07/29 09:52:51;;;;;;;2.72;1.30;;;;;;;-142.75;100.00;75267.38;5068495;28;20510;-64
2023/07/29 09:55:19;;;;;;;4.38;1.60;;;;;;;-142.75;100.00;75275.25;5068283;28;20535;-63
2023/07/29 09:57:45;;;;;;;2.50;1.20;;;;;;;-142.75;100.00;75253.59;5069080;28;20021;-63
2023/07/29 10:00:13;;;;;;;1.95;0.90;;;;;;;-142.75;100.00;75231.94;5067829;28;20035;-63
2023/07/29 10:02:40;;;;;;;1.75;0.80;;;;;;;-142.75;100.00;75220.16;5068912;28;20016;-63
2023/07/29 10:05:07;;;;;;;1.65;0.75;;;;;;;-142.75;100.00;75220.16;5067723;28;20020;-63
2023/07/29 10:07:37;;;;;;;2.00;0.80;;;;;;;-142.75;100.00;75229.97;5069312;28;20031;-63
2023/07/29 10:10:04;;;;;;;1.83;0.60;;;;;;;-142.75;100.00;75208.34;5067683;28;20027;-63
2023/07/29 10:12:31;;;;;;;2.00;0.70;;;;;;;-142.75;100.00;75237.84;5050737;28;20423;-63
2023/07/29 10:14:59;;;;;;;4.32;0.70;;;;;;;-142.75;100.00;75229.97;5069175;28;20074;-64
2023/07/29 10:17:26;;;;;;;1.33;0.57;;;;;;;-142.75;100.00;75251.63;5067988;28;21649;-64
2023/07/29 10:19:52;;;;;;;2.15;0.50;;;;;;;-142.75;100.00;75259.50;5069299;28;20500;-63
2023/07/29 10:22:20;;;;;;;3.67;0.77;;;;;;;-142.75;100.00;75269.34;5068179;28;20111;-63
2023/07/29 10:24:48;;;;;;;2.50;0.70;;;;;;;-142.75;100.00;75275.25;5068948;28;20032;-63
2023/07/29 10:27:17;;;;;;;3.50;0.80;;;;;;;-142.75;100.00;75269.34;5068830;28;20024;-63
2023/07/29 10:29:44;;;;;;;3.20;0.85;;;;;;;-142.75;100.00;75275.25;5068028;28;20021;-64
2023/07/29 10:32:11;;;;;;;3.35;0.77;;;;;;;-142.75;100.00;75277.22;5066931;28;20029;-63
2023/07/29 10:34:37;;;;;;;3.42;0.98;;;;;;;-142.75;100.00;75296.88;5067940;28;20028;-63
2023/07/29 10:37:03;;;;;;;2.70;0.80;;;;;;;-142.75;100.00;75277.22;5068555;28;20025;-64
2023/07/29 10:39:40;;;;;;;3.92;1.00;;;;;;;-142.75;100.00;75279.19;5070436;28;20403;-65
2023/07/29 10:42:07;;;;;;;3.30;1.00;;;;;;;-142.75;100.00;75259.50;5075501;28;20025;-64
2023/07/29 10:44:45;;;;;;;4.13;1.40;;;;;;;-142.75;100.00;75275.25;5068111;28;20043;-64
2023/07/29 10:47:40;;;;;;;5.20;1.13;;;;;;;-142.75;100.00;75239.81;5066827;28;20495;-64
2023/07/29 10:50:20;;;;;;;3.13;0.98;;;;;;;-142.75;100.00;75255.56;5067920;28;20064;-64
2023/07/29 10:52:50;;;;;;;6.35;1.50;;;;;;;-142.75;100.00;75263.44;5067839;28;20050;-63
2023/07/29 10:55:27;;;;;;;3.50;1.27;;;;;;;-142.75;100.00;75243.75;5065848;28;20107;-63
2023/07/29 10:58:14;;;;;;;6.78;1.45;;;;;;;-142.75;100.00;75206.38;5066618;28;20077;-63
2023/07/29 11:00:44;;;;;;;3.17;1.50;;;;;;;-142.75;100.00;75216.22;5066337;28;20008;-64
2023/07/29 11:03:11;;;;;;;3.28;1.77;;;;;;;-142.75;100.00;75235.88;5067851;28;20024;-64
2023/07/29 11:05:53;;;;;;;2.50;1.27;;;;;;;-142.75;100.00;75216.22;5066614;28;20103;-64
2023/07/29 11:08:19;;;;;;;4.63;1.80;;;;;;;-142.75;100.00;75218.19;5068187;28;20735;-64